sensor_id;sensor_type;location;lat;lon;timestamp;P1;durP1;ratioP1;P2;durP2;ratioP2
23670;SDS011;12012;51.998;7.614;2022-07-15T00:00:36;8.75;;;2.15;;
23670;SDS011;12012;51.998;7.614;2022-07-15T00:03:02;7.40;;;2.13;;
23670;SDS011;12012;51.998;7.614;2022-07-15T00:05:28;9.85;;;2.30;;
23670;SDS011;12012;51.998;7.614;2022-07-15T00:07:54;6.25;;;2.28;;
23670;SDS011;12012;51.998;7.614;2022-07-15T00:10:20;12.48;;;2.60;;
23670;SDS011;12012;51.998;7.614;2022-07-15T00:12:49;6.85;;;2.38;;
23670;SDS011;12012;51.998;7.614;2022-07-15T00:15:17;4.95;;;2.03;;
23670;SDS011;12012;51.998;7.614;2022-07-15T00:17:44;8.27;;;2.30;;
23670;SDS011;12012;51.998;7.614;2022-07-15T00:20:11;8.15;;;2.00;;
23670;SDS011;12012;51.998;7.614;2022-07-15T00:22:38;5.07;;;2.30;;
23670;SDS011;12012;51.998;7.614;2022-07-15T00:25:04;10.55;;;2.38;;
23670;SDS011;12012;51.998;7.614;2022-07-15T00:27:30;8.65;;;2.55;;
23670;SDS011;12012;51.998;7.614;2022-07-15T00:29:56;7.72;;;2.28;;
23670;SDS011;12012;51.998;7.614;2022-07-15T00:32:22;10.43;;;2.90;;
23670;SDS011;12012;51.998;7.614;2022-07-15T00:34:47;7.55;;;2.42;;
23670;SDS011;12012;51.998;7.614;2022-07-15T00:37:13;8.88;;;2.78;;
23670;SDS011;12012;51.998;7.614;2022-07-15T00:39:39;7.72;;;2.15;;
23670;SDS011;12012;51.998;7.614;2022-07-15T00:42:04;8.13;;;2.40;;
23670;SDS011;12012;51.998;7.614;2022-07-15T00:44:30;8.05;;;2.75;;
23670;SDS011;12012;51.998;7.614;2022-07-15T00:46:56;6.05;;;2.55;;
23670;SDS011;12012;51.998;7.614;2022-07-15T00:49:25;7.45;;;2.40;;
23670;SDS011;12012;51.998;7.614;2022-07-15T00:51:51;7.95;;;2.72;;
23670;SDS011;12012;51.998;7.614;2022-07-15T00:54:22;7.22;;;2.38;;
23670;SDS011;12012;51.998;7.614;2022-07-15T00:56:51;6.45;;;2.30;;
23670;SDS011;12012;51.998;7.614;2022-07-15T00:59:19;8.68;;;2.53;;
23670;SDS011;12012;51.998;7.614;2022-07-15T01:01:46;7.53;;;2.20;;
23670;SDS011;12012;51.998;7.614;2022-07-15T01:04:12;5.72;;;2.20;;
23670;SDS011;12012;51.998;7.614;2022-07-15T01:06:38;8.95;;;2.42;;
23670;SDS011;12012;51.998;7.614;2022-07-15T01:09:04;4.70;;;2.45;;
23670;SDS011;12012;51.998;7.614;2022-07-15T01:11:30;8.15;;;2.63;;
23670;SDS011;12012;51.998;7.614;2022-07-15T01:13:59;11.50;;;2.90;;
23670;SDS011;12012;51.998;7.614;2022-07-15T01:16:26;8.25;;;2.40;;
23670;SDS011;12012;51.998;7.614;2022-07-15T01:18:52;7.82;;;2.72;;
23670;SDS011;12012;51.998;7.614;2022-07-15T01:21:18;12.30;;;2.55;;
23670;SDS011;12012;51.998;7.614;2022-07-15T01:23:44;7.53;;;2.30;;
23670;SDS011;12012;51.998;7.614;2022-07-15T01:26:10;7.90;;;2.53;;
23670;SDS011;12012;51.998;7.614;2022-07-15T01:28:37;5.07;;;2.38;;
23670;SDS011;12012;51.998;7.614;2022-07-15T01:31:03;5.53;;;2.38;;
23670;SDS011;12012;51.998;7.614;2022-07-15T01:33:29;5.78;;;2.30;;
23670;SDS011;12012;51.998;7.614;2022-07-15T01:35:57;8.07;;;2.90;;
23670;SDS011;12012;51.998;7.614;2022-07-15T01:38:22;5.93;;;2.75;;
23670;SDS011;12012;51.998;7.614;2022-07-15T01:40:48;12.02;;;3.08;;
23670;SDS011;12012;51.998;7.614;2022-07-15T01:43:14;7.35;;;2.45;;
23670;SDS011;12012;51.998;7.614;2022-07-15T01:45:43;6.97;;;2.90;;
23670;SDS011;12012;51.998;7.614;2022-07-15T01:48:09;8.95;;;2.75;;
23670;SDS011;12012;51.998;7.614;2022-07-15T01:50:56;7.13;;;3.10;;
23670;SDS011;12012;51.998;7.614;2022-07-15T01:53:23;8.45;;;2.67;;
23670;SDS011;12012;51.998;7.614;2022-07-15T01:55:49;7.90;;;2.90;;
23670;SDS011;12012;51.998;7.614;2022-07-15T01:58:15;9.35;;;3.20;;
23670;SDS011;12012;51.998;7.614;2022-07-15T02:00:41;4.57;;;2.40;;
23670;SDS011;12012;51.998;7.614;2022-07-15T02:03:06;8.32;;;2.90;;
23670;SDS011;12012;51.998;7.614;2022-07-15T02:05:33;7.45;;;2.75;;
23670;SDS011;12012;51.998;7.614;2022-07-15T02:07:59;10.90;;;3.30;;
23670;SDS011;12012;51.998;7.614;2022-07-15T02:10:25;12.80;;;3.50;;
23670;SDS011;12012;51.998;7.614;2022-07-15T02:12:50;9.48;;;3.30;;
23670;SDS011;12012;51.998;7.614;2022-07-15T02:15:16;7.07;;;2.55;;
23670;SDS011;12012;51.998;7.614;2022-07-15T02:17:42;7.85;;;3.00;;
23670;SDS011;12012;51.998;7.614;2022-07-15T02:20:08;7.25;;;3.03;;
23670;SDS011;12012;51.998;7.614;2022-07-15T02:22:35;9.48;;;3.63;;
23670;SDS011;12012;51.998;7.614;2022-07-15T02:25:02;6.18;;;3.15;;
23670;SDS011;12012;51.998;7.614;2022-07-15T02:27:28;7.13;;;3.05;;
23670;SDS011;12012;51.998;7.614;2022-07-15T02:29:54;7.38;;;3.30;;
23670;SDS011;12012;51.998;7.614;2022-07-15T02:32:21;8.27;;;3.20;;
23670;SDS011;12012;51.998;7.614;2022-07-15T02:34:46;7.63;;;3.47;;
23670;SDS011;12012;51.998;7.614;2022-07-15T02:37:12;12.82;;;3.65;;
23670;SDS011;12012;51.998;7.614;2022-07-15T02:39:38;7.28;;;3.22;;
23670;SDS011;12012;51.998;7.614;2022-07-15T02:42:04;8.80;;;3.38;;
23670;SDS011;12012;51.998;7.614;2022-07-15T02:44:31;11.80;;;3.78;;
23670;SDS011;12012;51.998;7.614;2022-07-15T02:46:56;8.40;;;3.10;;
23670;SDS011;12012;51.998;7.614;2022-07-15T02:49:22;9.10;;;3.75;;
23670;SDS011;12012;51.998;7.614;2022-07-15T02:51:48;7.90;;;3.53;;
23670;SDS011;12012;51.998;7.614;2022-07-15T02:54:14;6.93;;;2.90;;
23670;SDS011;12012;51.998;7.614;2022-07-15T02:56:39;20.40;;;5.30;;
23670;SDS011;12012;51.998;7.614;2022-07-15T02:59:05;9.15;;;3.63;;
23670;SDS011;12012;51.998;7.614;2022-07-15T03:01:30;6.78;;;3.10;;
23670;SDS011;12012;51.998;7.614;2022-07-15T03:03:56;7.40;;;3.22;;
23670;SDS011;12012;51.998;7.614;2022-07-15T03:06:21;9.82;;;3.28;;
23670;SDS011;12012;51.998;7.614;2022-07-15T03:08:47;9.10;;;3.70;;
23670;SDS011;12012;51.998;7.614;2022-07-15T03:11:13;10.75;;;3.70;;
23670;SDS011;12012;51.998;7.614;2022-07-15T03:13:38;13.55;;;4.13;;
23670;SDS011;12012;51.998;7.614;2022-07-15T03:16:04;11.50;;;3.28;;
23670;SDS011;12012;51.998;7.614;2022-07-15T03:18:29;6.32;;;2.90;;
23670;SDS011;12012;51.998;7.614;2022-07-15T03:20:55;10.02;;;3.15;;
23670;SDS011;12012;51.998;7.614;2022-07-15T03:23:21;11.18;;;3.67;;
23670;SDS011;12012;51.998;7.614;2022-07-15T03:25:46;10.23;;;3.67;;
23670;SDS011;12012;51.998;7.614;2022-07-15T03:28:13;7.90;;;3.58;;
23670;SDS011;12012;51.998;7.614;2022-07-15T03:30:38;9.70;;;3.00;;
23670;SDS011;12012;51.998;7.614;2022-07-15T03:33:04;6.78;;;3.13;;
23670;SDS011;12012;51.998;7.614;2022-07-15T03:35:30;8.90;;;3.55;;
23670;SDS011;12012;51.998;7.614;2022-07-15T03:37:55;10.32;;;3.58;;
23670;SDS011;12012;51.998;7.614;2022-07-15T03:40:21;6.80;;;3.35;;
23670;SDS011;12012;51.998;7.614;2022-07-15T03:42:46;11.23;;;3.67;;
23670;SDS011;12012;51.998;7.614;2022-07-15T03:45:12;9.60;;;3.58;;
23670;SDS011;12012;51.998;7.614;2022-07-15T03:47:38;8.20;;;3.63;;
23670;SDS011;12012;51.998;7.614;2022-07-15T03:50:04;10.88;;;3.50;;
23670;SDS011;12012;51.998;7.614;2022-07-15T03:52:30;7.47;;;3.45;;
23670;SDS011;12012;51.998;7.614;2022-07-15T03:54:55;6.50;;;3.58;;
23670;SDS011;12012;51.998;7.614;2022-07-15T03:57:21;8.82;;;4.13;;
23670;SDS011;12012;51.998;7.614;2022-07-15T03:59:49;11.55;;;4.05;;
23670;SDS011;12012;51.998;7.614;2022-07-15T04:02:15;9.68;;;3.80;;
23670;SDS011;12012;51.998;7.614;2022-07-15T04:04:41;5.60;;;3.22;;
23670;SDS011;12012;51.998;7.614;2022-07-15T04:07:06;10.20;;;3.95;;
23670;SDS011;12012;51.998;7.614;2022-07-15T04:09:32;11.52;;;3.92;;
23670;SDS011;12012;51.998;7.614;2022-07-15T04:11:57;13.00;;;4.07;;
23670;SDS011;12012;51.998;7.614;2022-07-15T04:14:23;7.45;;;3.63;;
23670;SDS011;12012;51.998;7.614;2022-07-15T04:16:49;15.05;;;4.53;;
23670;SDS011;12012;51.998;7.614;2022-07-15T04:19:14;6.20;;;3.05;;
23670;SDS011;12012;51.998;7.614;2022-07-15T04:21:40;11.60;;;3.95;;
23670;SDS011;12012;51.998;7.614;2022-07-15T04:24:05;9.85;;;3.70;;
23670;SDS011;12012;51.998;7.614;2022-07-15T04:26:31;13.65;;;4.28;;
23670;SDS011;12012;51.998;7.614;2022-07-15T04:28:57;10.73;;;3.65;;
23670;SDS011;12012;51.998;7.614;2022-07-15T04:31:22;10.80;;;4.35;;
23670;SDS011;12012;51.998;7.614;2022-07-15T04:33:48;9.20;;;3.63;;
23670;SDS011;12012;51.998;7.614;2022-07-15T04:36:14;11.93;;;3.80;;
23670;SDS011;12012;51.998;7.614;2022-07-15T04:38:39;10.38;;;3.95;;
23670;SDS011;12012;51.998;7.614;2022-07-15T04:41:05;8.18;;;3.70;;
23670;SDS011;12012;51.998;7.614;2022-07-15T04:43:31;13.65;;;4.38;;
23670;SDS011;12012;51.998;7.614;2022-07-15T04:45:56;11.15;;;3.55;;
23670;SDS011;12012;51.998;7.614;2022-07-15T04:48:22;7.57;;;3.20;;
23670;SDS011;12012;51.998;7.614;2022-07-15T04:51:06;5.22;;;2.70;;
23670;SDS011;12012;51.998;7.614;2022-07-15T04:53:32;11.60;;;3.55;;
23670;SDS011;12012;51.998;7.614;2022-07-15T04:55:57;15.27;;;3.95;;
23670;SDS011;12012;51.998;7.614;2022-07-15T04:58:23;7.72;;;2.92;;
23670;SDS011;12012;51.998;7.614;2022-07-15T05:00:48;9.70;;;3.55;;
23670;SDS011;12012;51.998;7.614;2022-07-15T05:03:15;10.18;;;3.50;;
23670;SDS011;12012;51.998;7.614;2022-07-15T05:05:41;11.95;;;3.47;;
23670;SDS011;12012;51.998;7.614;2022-07-15T05:08:06;10.52;;;3.55;;
23670;SDS011;12012;51.998;7.614;2022-07-15T05:10:32;9.38;;;3.65;;
23670;SDS011;12012;51.998;7.614;2022-07-15T05:12:58;12.65;;;3.70;;
23670;SDS011;12012;51.998;7.614;2022-07-15T05:15:24;10.20;;;3.45;;
23670;SDS011;12012;51.998;7.614;2022-07-15T05:17:50;5.65;;;3.05;;
23670;SDS011;12012;51.998;7.614;2022-07-15T05:20:15;12.32;;;4.43;;
23670;SDS011;12012;51.998;7.614;2022-07-15T05:22:41;10.43;;;4.10;;
23670;SDS011;12012;51.998;7.614;2022-07-15T05:25:07;9.90;;;3.28;;
23670;SDS011;12012;51.998;7.614;2022-07-15T05:27:32;8.95;;;2.83;;
23670;SDS011;12012;51.998;7.614;2022-07-15T05:29:58;9.05;;;2.90;;
23670;SDS011;12012;51.998;7.614;2022-07-15T05:32:24;8.30;;;2.83;;
23670;SDS011;12012;51.998;7.614;2022-07-15T05:34:49;7.18;;;2.53;;
23670;SDS011;12012;51.998;7.614;2022-07-15T05:37:15;6.35;;;2.25;;
23670;SDS011;12012;51.998;7.614;2022-07-15T05:39:40;10.80;;;2.40;;
23670;SDS011;12012;51.998;7.614;2022-07-15T05:42:21;10.98;;;2.83;;
23670;SDS011;12012;51.998;7.614;2022-07-15T05:44:47;8.38;;;2.60;;
23670;SDS011;12012;51.998;7.614;2022-07-15T05:47:13;10.43;;;2.60;;
23670;SDS011;12012;51.998;7.614;2022-07-15T05:49:39;9.23;;;2.15;;
23670;SDS011;12012;51.998;7.614;2022-07-15T05:52:06;7.90;;;2.53;;
23670;SDS011;12012;51.998;7.614;2022-07-15T05:54:32;9.80;;;2.25;;
23670;SDS011;12012;51.998;7.614;2022-07-15T05:56:58;11.10;;;2.78;;
23670;SDS011;12012;51.998;7.614;2022-07-15T05:59:23;8.30;;;2.55;;
23670;SDS011;12012;51.998;7.614;2022-07-15T06:01:49;9.30;;;2.40;;
23670;SDS011;12012;51.998;7.614;2022-07-15T06:04:15;7.97;;;2.40;;
23670;SDS011;12012;51.998;7.614;2022-07-15T06:06:40;13.68;;;2.58;;
23670;SDS011;12012;51.998;7.614;2022-07-15T06:09:06;6.75;;;1.90;;
23670;SDS011;12012;51.998;7.614;2022-07-15T06:11:31;10.43;;;2.28;;
23670;SDS011;12012;51.998;7.614;2022-07-15T06:13:59;10.75;;;2.35;;
23670;SDS011;12012;51.998;7.614;2022-07-15T06:16:25;7.38;;;2.08;;
23670;SDS011;12012;51.998;7.614;2022-07-15T06:18:50;6.85;;;2.60;;
23670;SDS011;12012;51.998;7.614;2022-07-15T06:21:16;12.10;;;2.50;;
23670;SDS011;12012;51.998;7.614;2022-07-15T06:23:42;7.15;;;2.10;;
23670;SDS011;12012;51.998;7.614;2022-07-15T06:26:07;9.52;;;2.20;;
23670;SDS011;12012;51.998;7.614;2022-07-15T06:28:34;9.43;;;2.40;;
23670;SDS011;12012;51.998;7.614;2022-07-15T06:31:00;12.90;;;2.50;;
23670;SDS011;12012;51.998;7.614;2022-07-15T06:33:26;9.20;;;2.00;;
23670;SDS011;12012;51.998;7.614;2022-07-15T06:35:52;8.20;;;2.00;;
23670;SDS011;12012;51.998;7.614;2022-07-15T06:38:17;7.07;;;2.08;;
23670;SDS011;12012;51.998;7.614;2022-07-15T06:40:44;8.80;;;2.50;;
23670;SDS011;12012;51.998;7.614;2022-07-15T06:43:09;11.82;;;2.13;;
23670;SDS011;12012;51.998;7.614;2022-07-15T06:45:35;11.65;;;2.70;;
23670;SDS011;12012;51.998;7.614;2022-07-15T06:48:01;10.65;;;2.05;;
23670;SDS011;12012;51.998;7.614;2022-07-15T06:50:27;9.85;;;2.30;;
23670;SDS011;12012;51.998;7.614;2022-07-15T06:52:52;13.27;;;2.15;;
23670;SDS011;12012;51.998;7.614;2022-07-15T06:55:19;10.52;;;2.47;;
23670;SDS011;12012;51.998;7.614;2022-07-15T06:57:45;8.98;;;1.77;;
23670;SDS011;12012;51.998;7.614;2022-07-15T07:00:11;9.38;;;2.05;;
23670;SDS011;12012;51.998;7.614;2022-07-15T07:02:38;10.43;;;2.00;;
23670;SDS011;12012;51.998;7.614;2022-07-15T07:05:04;6.95;;;1.65;;
23670;SDS011;12012;51.998;7.614;2022-07-15T07:07:30;6.10;;;1.55;;
23670;SDS011;12012;51.998;7.614;2022-07-15T07:09:56;11.35;;;2.17;;
23670;SDS011;12012;51.998;7.614;2022-07-15T07:12:21;10.23;;;1.77;;
23670;SDS011;12012;51.998;7.614;2022-07-15T07:14:47;6.03;;;1.60;;
23670;SDS011;12012;51.998;7.614;2022-07-15T07:17:13;6.25;;;1.52;;
23670;SDS011;12012;51.998;7.614;2022-07-15T07:19:39;8.40;;;1.48;;
23670;SDS011;12012;51.998;7.614;2022-07-15T07:22:04;6.57;;;1.58;;
23670;SDS011;12012;51.998;7.614;2022-07-15T07:24:30;6.88;;;1.73;;
23670;SDS011;12012;51.998;7.614;2022-07-15T07:26:56;7.90;;;1.50;;
23670;SDS011;12012;51.998;7.614;2022-07-15T07:29:21;5.97;;;1.58;;
23670;SDS011;12012;51.998;7.614;2022-07-15T07:31:48;7.60;;;1.35;;
23670;SDS011;12012;51.998;7.614;2022-07-15T07:34:14;10.57;;;1.60;;
23670;SDS011;12012;51.998;7.614;2022-07-15T07:36:40;7.82;;;1.60;;
23670;SDS011;12012;51.998;7.614;2022-07-15T07:39:06;4.32;;;1.40;;
23670;SDS011;12012;51.998;7.614;2022-07-15T07:41:32;8.05;;;1.70;;
23670;SDS011;12012;51.998;7.614;2022-07-15T07:43:57;4.97;;;1.33;;
23670;SDS011;12012;51.998;7.614;2022-07-15T07:46:23;6.43;;;1.58;;
23670;SDS011;12012;51.998;7.614;2022-07-15T07:48:49;10.13;;;1.70;;
23670;SDS011;12012;51.998;7.614;2022-07-15T07:51:16;8.50;;;1.20;;
23670;SDS011;12012;51.998;7.614;2022-07-15T07:53:42;6.65;;;1.50;;
23670;SDS011;12012;51.998;7.614;2022-07-15T07:56:07;7.63;;;1.35;;
23670;SDS011;12012;51.998;7.614;2022-07-15T07:58:33;5.38;;;1.10;;
23670;SDS011;12012;51.998;7.614;2022-07-15T08:00:59;3.28;;;0.90;;
23670;SDS011;12012;51.998;7.614;2022-07-15T08:03:25;7.60;;;1.35;;
23670;SDS011;12012;51.998;7.614;2022-07-15T08:05:52;3.88;;;1.10;;
23670;SDS011;12012;51.998;7.614;2022-07-15T08:08:18;4.20;;;0.90;;
23670;SDS011;12012;51.998;7.614;2022-07-15T08:10:49;6.60;;;0.90;;
23670;SDS011;12012;51.998;7.614;2022-07-15T08:15:43;5.22;;;1.05;;
23670;SDS011;12012;51.998;7.614;2022-07-15T08:18:09;7.28;;;1.20;;
23670;SDS011;12012;51.998;7.614;2022-07-15T08:20:35;4.70;;;1.75;;
23670;SDS011;12012;51.998;7.614;2022-07-15T08:23:01;5.75;;;1.35;;
23670;SDS011;12012;51.998;7.614;2022-07-15T08:25:28;4.75;;;1.20;;
23670;SDS011;12012;51.998;7.614;2022-07-15T08:27:56;6.03;;;1.25;;
23670;SDS011;12012;51.998;7.614;2022-07-15T08:30:23;2.95;;;1.15;;
23670;SDS011;12012;51.998;7.614;2022-07-15T08:32:50;2.92;;;0.80;;
23670;SDS011;12012;51.998;7.614;2022-07-15T08:35:15;3.03;;;0.80;;
23670;SDS011;12012;51.998;7.614;2022-07-15T08:37:41;4.53;;;1.20;;
23670;SDS011;12012;51.998;7.614;2022-07-15T08:40:07;6.32;;;1.02;;
23670;SDS011;12012;51.998;7.614;2022-07-15T08:42:34;4.43;;;1.13;;
23670;SDS011;12012;51.998;7.614;2022-07-15T08:45:00;5.78;;;1.10;;
23670;SDS011;12012;51.998;7.614;2022-07-15T08:47:26;4.80;;;1.45;;
23670;SDS011;12012;51.998;7.614;2022-07-15T08:49:56;5.03;;;1.50;;
23670;SDS011;12012;51.998;7.614;2022-07-15T08:52:23;2.80;;;0.85;;
23670;SDS011;12012;51.998;7.614;2022-07-15T08:54:49;2.60;;;0.80;;
23670;SDS011;12012;51.998;7.614;2022-07-15T08:57:16;4.55;;;1.05;;
23670;SDS011;12012;51.998;7.614;2022-07-15T08:59:42;3.55;;;1.10;;
23670;SDS011;12012;51.998;7.614;2022-07-15T09:02:10;3.92;;;1.25;;
23670;SDS011;12012;51.998;7.614;2022-07-15T09:10:19;3.00;;;0.80;;
23670;SDS011;12012;51.998;7.614;2022-07-15T09:12:48;3.97;;;1.00;;
23670;SDS011;12012;51.998;7.614;2022-07-15T09:15:33;4.22;;;1.30;;
23670;SDS011;12012;51.998;7.614;2022-07-15T09:18:19;3.85;;;1.48;;
23670;SDS011;12012;51.998;7.614;2022-07-15T09:20:46;2.53;;;0.70;;
23670;SDS011;12012;51.998;7.614;2022-07-15T09:23:14;3.22;;;1.05;;
23670;SDS011;12012;51.998;7.614;2022-07-15T09:25:45;5.78;;;1.30;;
23670;SDS011;12012;51.998;7.614;2022-07-15T09:28:15;2.80;;;1.02;;
23670;SDS011;12012;51.998;7.614;2022-07-15T09:30:42;3.38;;;0.80;;
23670;SDS011;12012;51.998;7.614;2022-07-15T09:33:29;1.95;;;0.65;;
23670;SDS011;12012;51.998;7.614;2022-07-15T09:44:09;2.88;;;0.80;;
23670;SDS011;12012;51.998;7.614;2022-07-15T09:46:49;2.83;;;0.98;;
23670;SDS011;12012;51.998;7.614;2022-07-15T09:51:49;3.90;;;1.13;;
23670;SDS011;12012;51.998;7.614;2022-07-15T09:56:49;3.08;;;0.98;;
23670;SDS011;12012;51.998;7.614;2022-07-15T09:59:16;2.90;;;0.90;;
23670;SDS011;12012;51.998;7.614;2022-07-15T10:01:42;4.30;;;1.30;;
23670;SDS011;12012;51.998;7.614;2022-07-15T10:04:09;1.95;;;0.68;;
23670;SDS011;12012;51.998;7.614;2022-07-15T10:06:36;1.88;;;0.75;;
23670;SDS011;12012;51.998;7.614;2022-07-15T10:09:04;2.00;;;0.50;;
23670;SDS011;12012;51.998;7.614;2022-07-15T10:11:36;3.55;;;1.00;;
23670;SDS011;12012;51.998;7.614;2022-07-15T10:20:06;2.17;;;0.70;;
23670;SDS011;12012;51.998;7.614;2022-07-15T10:22:58;2.17;;;0.80;;
23670;SDS011;12012;51.998;7.614;2022-07-15T10:25:50;2.92;;;0.75;;
23670;SDS011;12012;51.998;7.614;2022-07-15T10:28:42;3.83;;;0.90;;
23670;SDS011;12012;51.998;7.614;2022-07-15T10:39:18;1.40;;;0.60;;
23670;SDS011;12012;51.998;7.614;2022-07-15T10:44:22;4.10;;;0.70;;
23670;SDS011;12012;51.998;7.614;2022-07-15T10:49:39;1.55;;;0.75;;
23670;SDS011;12012;51.998;7.614;2022-07-15T10:52:19;3.08;;;0.68;;
23670;SDS011;12012;51.998;7.614;2022-07-15T10:54:50;3.03;;;0.65;;
23670;SDS011;12012;51.998;7.614;2022-07-15T11:05:26;1.08;;;0.57;;
23670;SDS011;12012;51.998;7.614;2022-07-15T11:07:51;2.78;;;0.60;;
23670;SDS011;12012;51.998;7.614;2022-07-15T11:10:19;4.00;;;0.90;;
23670;SDS011;12012;51.998;7.614;2022-07-15T11:15:15;3.25;;;0.93;;
23670;SDS011;12012;51.998;7.614;2022-07-15T11:17:45;2.05;;;0.80;;
23670;SDS011;12012;51.998;7.614;2022-07-15T11:20:17;1.45;;;0.57;;
23670;SDS011;12012;51.998;7.614;2022-07-15T11:22:48;4.13;;;0.50;;
23670;SDS011;12012;51.998;7.614;2022-07-15T11:25:22;2.00;;;0.73;;
23670;SDS011;12012;51.998;7.614;2022-07-15T11:30:47;1.50;;;0.63;;
23670;SDS011;12012;51.998;7.614;2022-07-15T11:33:18;1.98;;;0.60;;
23670;SDS011;12012;51.998;7.614;2022-07-15T11:38:21;1.65;;;0.52;;
23670;SDS011;12012;51.998;7.614;2022-07-15T11:40:59;1.98;;;0.65;;
23670;SDS011;12012;51.998;7.614;2022-07-15T11:43:44;1.55;;;0.50;;
23670;SDS011;12012;51.998;7.614;2022-07-15T11:46:30;3.20;;;0.60;;
23670;SDS011;12012;51.998;7.614;2022-07-15T11:48:56;3.05;;;0.55;;
23670;SDS011;12012;51.998;7.614;2022-07-15T11:51:27;2.72;;;0.73;;
23670;SDS011;12012;51.998;7.614;2022-07-15T11:53:54;1.15;;;0.50;;
23670;SDS011;12012;51.998;7.614;2022-07-15T11:56:21;3.75;;;0.70;;
23670;SDS011;12012;51.998;7.614;2022-07-15T11:58:54;2.80;;;0.90;;
23670;SDS011;12012;51.998;7.614;2022-07-15T12:01:30;1.30;;;0.70;;
23670;SDS011;12012;51.998;7.614;2022-07-15T12:03:57;2.88;;;0.50;;
23670;SDS011;12012;51.998;7.614;2022-07-15T12:06:33;3.20;;;0.80;;
23670;SDS011;12012;51.998;7.614;2022-07-15T12:08:59;3.55;;;0.40;;
23670;SDS011;12012;51.998;7.614;2022-07-15T12:16:35;1.02;;;0.50;;
23670;SDS011;12012;51.998;7.614;2022-07-15T12:19:06;2.58;;;0.40;;
23670;SDS011;12012;51.998;7.614;2022-07-15T12:21:53;0.63;;;0.40;;
23670;SDS011;12012;51.998;7.614;2022-07-15T12:24:21;1.48;;;0.40;;
23670;SDS011;12012;51.998;7.614;2022-07-15T12:29:18;2.13;;;0.50;;
23670;SDS011;12012;51.998;7.614;2022-07-15T12:31:51;1.70;;;0.40;;
23670;SDS011;12012;51.998;7.614;2022-07-15T12:37:46;1.55;;;0.50;;
23670;SDS011;12012;51.998;7.614;2022-07-15T12:40:07;3.83;;;0.60;;
23670;SDS011;12012;51.998;7.614;2022-07-15T12:47:58;0.85;;;0.40;;
23670;SDS011;12012;51.998;7.614;2022-07-15T12:50:32;3.20;;;0.70;;
23670;SDS011;12012;51.998;7.614;2022-07-15T12:53:07;2.45;;;0.75;;
23670;SDS011;12012;51.998;7.614;2022-07-15T12:55:33;1.35;;;0.50;;
23670;SDS011;12012;51.998;7.614;2022-07-15T12:58:13;1.70;;;0.50;;
23670;SDS011;12012;51.998;7.614;2022-07-15T13:00:41;1.77;;;0.40;;
23670;SDS011;12012;51.998;7.614;2022-07-15T13:08:11;4.30;;;0.60;;
23670;SDS011;12012;51.998;7.614;2022-07-15T13:10:38;0.90;;;0.45;;
23670;SDS011;12012;51.998;7.614;2022-07-15T13:13:06;0.75;;;0.40;;
23670;SDS011;12012;51.998;7.614;2022-07-15T13:15:33;0.63;;;0.40;;
23670;SDS011;12012;51.998;7.614;2022-07-15T13:17:58;0.90;;;0.40;;
23670;SDS011;12012;51.998;7.614;2022-07-15T13:20:24;0.65;;;0.40;;
23670;SDS011;12012;51.998;7.614;2022-07-15T13:22:50;0.77;;;0.47;;
23670;SDS011;12012;51.998;7.614;2022-07-15T13:25:16;1.17;;;0.30;;
23670;SDS011;12012;51.998;7.614;2022-07-15T13:27:43;0.70;;;0.50;;
23670;SDS011;12012;51.998;7.614;2022-07-15T13:30:09;0.77;;;0.30;;
23670;SDS011;12012;51.998;7.614;2022-07-15T13:32:35;0.98;;;0.50;;
23670;SDS011;12012;51.998;7.614;2022-07-15T13:35:01;1.88;;;0.50;;
23670;SDS011;12012;51.998;7.614;2022-07-15T13:37:27;1.90;;;0.50;;
23670;SDS011;12012;51.998;7.614;2022-07-15T13:39:53;2.33;;;0.60;;
23670;SDS011;12012;51.998;7.614;2022-07-15T13:42:18;0.63;;;0.40;;
23670;SDS011;12012;51.998;7.614;2022-07-15T13:44:44;0.70;;;0.50;;
23670;SDS011;12012;51.998;7.614;2022-07-15T13:47:10;0.77;;;0.40;;
23670;SDS011;12012;51.998;7.614;2022-07-15T13:49:35;0.60;;;0.40;;
23670;SDS011;12012;51.998;7.614;2022-07-15T13:52:20;2.95;;;0.63;;
23670;SDS011;12012;51.998;7.614;2022-07-15T13:54:45;2.35;;;0.50;;
23670;SDS011;12012;51.998;7.614;2022-07-15T13:57:11;0.70;;;0.40;;
23670;SDS011;12012;51.998;7.614;2022-07-15T13:59:37;0.75;;;0.57;;
23670;SDS011;12012;51.998;7.614;2022-07-15T14:02:03;1.25;;;0.60;;
23670;SDS011;12012;51.998;7.614;2022-07-15T14:04:29;0.73;;;0.50;;
23670;SDS011;12012;51.998;7.614;2022-07-15T14:06:55;1.88;;;0.60;;
23670;SDS011;12012;51.998;7.614;2022-07-15T14:09:21;0.95;;;0.57;;
23670;SDS011;12012;51.998;7.614;2022-07-15T14:11:47;1.30;;;0.50;;
23670;SDS011;12012;51.998;7.614;2022-07-15T14:14:13;0.60;;;0.40;;
23670;SDS011;12012;51.998;7.614;2022-07-15T14:16:39;1.27;;;0.52;;
23670;SDS011;12012;51.998;7.614;2022-07-15T14:19:05;1.27;;;0.52;;
23670;SDS011;12012;51.998;7.614;2022-07-15T14:21:31;29.42;;;4.03;;
23670;SDS011;12012;51.998;7.614;2022-07-15T14:23:57;1.60;;;0.60;;
23670;SDS011;12012;51.998;7.614;2022-07-15T14:26:22;2.15;;;0.63;;
23670;SDS011;12012;51.998;7.614;2022-07-15T14:28:48;1.10;;;0.40;;
23670;SDS011;12012;51.998;7.614;2022-07-15T14:31:13;1.58;;;0.40;;
23670;SDS011;12012;51.998;7.614;2022-07-15T14:33:40;1.65;;;0.47;;
23670;SDS011;12012;51.998;7.614;2022-07-15T14:36:07;0.60;;;0.40;;
23670;SDS011;12012;51.998;7.614;2022-07-15T14:38:34;1.92;;;0.40;;
23670;SDS011;12012;51.998;7.614;2022-07-15T14:41:00;3.05;;;0.57;;
23670;SDS011;12012;51.998;7.614;2022-07-15T14:43:26;1.10;;;0.45;;
23670;SDS011;12012;51.998;7.614;2022-07-15T14:45:52;1.40;;;0.40;;
23670;SDS011;12012;51.998;7.614;2022-07-15T14:48:18;1.73;;;0.50;;
23670;SDS011;12012;51.998;7.614;2022-07-15T14:50:43;2.40;;;0.57;;
23670;SDS011;12012;51.998;7.614;2022-07-15T14:53:09;0.75;;;0.60;;
23670;SDS011;12012;51.998;7.614;2022-07-15T14:55:35;0.70;;;0.40;;
23670;SDS011;12012;51.998;7.614;2022-07-15T14:58:00;2.90;;;0.68;;
23670;SDS011;12012;51.998;7.614;2022-07-15T15:00:26;2.83;;;0.50;;
23670;SDS011;12012;51.998;7.614;2022-07-15T15:02:52;3.30;;;0.50;;
23670;SDS011;12012;51.998;7.614;2022-07-15T15:05:17;2.47;;;0.52;;
23670;SDS011;12012;51.998;7.614;2022-07-15T15:07:43;1.25;;;0.47;;
23670;SDS011;12012;51.998;7.614;2022-07-15T15:10:09;1.25;;;0.60;;
23670;SDS011;12012;51.998;7.614;2022-07-15T15:12:35;1.05;;;0.50;;
23670;SDS011;12012;51.998;7.614;2022-07-15T15:15:01;1.33;;;0.60;;
23670;SDS011;12012;51.998;7.614;2022-07-15T15:17:27;0.52;;;0.30;;
23670;SDS011;12012;51.998;7.614;2022-07-15T15:19:53;1.50;;;0.38;;
23670;SDS011;12012;51.998;7.614;2022-07-15T15:22:18;3.55;;;0.60;;
23670;SDS011;12012;51.998;7.614;2022-07-15T15:24:44;1.48;;;0.52;;
23670;SDS011;12012;51.998;7.614;2022-07-15T15:27:10;2.60;;;0.57;;
23670;SDS011;12012;51.998;7.614;2022-07-15T15:29:36;2.67;;;0.60;;
23670;SDS011;12012;51.998;7.614;2022-07-15T15:32:03;3.85;;;0.70;;
23670;SDS011;12012;51.998;7.614;2022-07-15T15:34:29;2.50;;;0.50;;
23670;SDS011;12012;51.998;7.614;2022-07-15T15:36:55;2.88;;;0.50;;
23670;SDS011;12012;51.998;7.614;2022-07-15T15:39:20;2.38;;;0.50;;
23670;SDS011;12012;51.998;7.614;2022-07-15T15:41:46;1.67;;;0.50;;
23670;SDS011;12012;51.998;7.614;2022-07-15T15:44:12;0.60;;;0.30;;
23670;SDS011;12012;51.998;7.614;2022-07-15T15:46:38;2.03;;;0.95;;
23670;SDS011;12012;51.998;7.614;2022-07-15T15:49:04;2.72;;;0.57;;
23670;SDS011;12012;51.998;7.614;2022-07-15T15:51:30;3.83;;;0.90;;
23670;SDS011;12012;51.998;7.614;2022-07-15T15:53:55;2.95;;;0.50;;
23670;SDS011;12012;51.998;7.614;2022-07-15T15:56:21;0.85;;;0.55;;
23670;SDS011;12012;51.998;7.614;2022-07-15T15:58:47;2.67;;;0.50;;
23670;SDS011;12012;51.998;7.614;2022-07-15T16:01:13;1.33;;;0.60;;
23670;SDS011;12012;51.998;7.614;2022-07-15T16:03:38;3.67;;;0.70;;